Time;durP1;ratioP1;P1;durP2;ratioP2;P2;SDS_P1;SDS_P2;PMS_P1;PMS_P2;Temp;Humidity;BMP_temperature;BMP_pressure;BME280_temperature;BME280_humidity;BME280_pressure;Samples;Min_cycle;Max_cycle;Signal;HPM_P1;HPM_P2
2024/03/08 00:00:14;;;;;;;28.80;16.60;;;;;;;-4.51;100.00;101374.30;107892;1255;74428;-64
2024/03/08 00:02:45;;;;;;;30.50;16.70;;;;;;;-4.53;100.00;101372.98;108098;1257;71872;-64
2024/03/08 00:05:13;;;;;;;27.20;16.20;;;;;;;-4.58;100.00;101370.11;107979;1257;72727;-64
2024/03/08 00:07:41;;;;;;;23.70;14.70;;;;;;;-4.65;100.00;101370.55;108049;1255;61091;-64
2024/03/08 00:10:11;;;;;;;26.70;15.80;;;;;;;-4.75;100.00;101368.62;108101;1255;61214;-64
2024/03/08 00:12:44;;;;;;;27.00;15.10;;;;;;;-4.82;100.00;101368.89;108018;1257;73425;-64
2024/03/08 00:15:14;;;;;;;25.80;15.00;;;;;;;-4.83;100.00;101366.75;108105;1257;73025;-66
2024/03/08 00:17:44;;;;;;;27.10;16.10;;;;;;;-4.85;100.00;101367.88;108029;1257;74731;-65
2024/03/08 00:20:13;;;;;;;27.70;16.10;;;;;;;-4.89;100.00;101365.43;108012;1256;61141;-64
2024/03/08 00:22:42;;;;;;;26.90;15.70;;;;;;;-4.89;100.00;101365.45;107905;1257;61224;-64
2024/03/08 00:25:10;;;;;;;25.40;15.50;;;;;;;-4.90;100.00;101364.85;108011;1255;73391;-64
2024/03/08 00:27:38;;;;;;;29.60;16.00;;;;;;;-4.95;100.00;101360.91;107978;1257;71731;-65
2024/03/08 00:30:07;;;;;;;26.50;15.70;;;;;;;-4.97;100.00;101360.21;107919;1257;71391;-64
2024/03/08 00:32:36;;;;;;;27.90;16.00;;;;;;;-4.99;100.00;101358.95;107894;1257;61148;-65
2024/03/08 00:35:07;;;;;;;25.20;14.80;;;;;;;-5.00;100.00;101358.70;108119;1257;61134;-65
2024/03/08 00:37:35;;;;;;;27.00;15.10;;;;;;;-5.03;100.00;101358.30;107906;1257;74632;-65
2024/03/08 00:40:04;;;;;;;26.10;16.10;;;;;;;-5.05;100.00;101355.58;108127;1257;71752;-66
2024/03/08 00:42:33;;;;;;;25.40;15.50;;;;;;;-5.09;100.00;101351.87;108043;1257;71460;-65
2024/03/08 00:45:01;;;;;;;29.70;15.90;;;;;;;-5.08;100.00;101351.52;107943;1257;61238;-64
2024/03/08 00:47:29;;;;;;;30.10;16.30;;;;;;;-5.10;100.00;101347.15;108022;1257;61153;-64
2024/03/08 00:49:57;;;;;;;30.60;16.70;;;;;;;-5.11;100.00;101347.74;108048;1255;74706;-64
2024/03/08 00:52:25;;;;;;;33.40;17.80;;;;;;;-5.13;100.00;101342.02;108002;1257;71122;-64
2024/03/08 00:54:54;;;;;;;29.80;17.40;;;;;;;-5.13;100.00;101344.95;108036;1257;71504;-64
2024/03/08 00:57:22;;;;;;;30.10;17.20;;;;;;;-5.13;100.00;101341.64;107996;1255;60102;-64
2024/03/08 00:59:50;;;;;;;32.30;18.70;;;;;;;-5.11;100.00;101341.17;108083;1257;61070;-64
2024/03/08 01:02:22;;;;;;;31.60;17.40;;;;;;;-5.10;100.00;101337.77;107981;1257;74726;-64
2024/03/08 01:04:50;;;;;;;30.10;17.40;;;;;;;-5.11;100.00;101332.67;108064;1257;72049;-66
2024/03/08 01:07:18;;;;;;;30.20;16.90;;;;;;;-5.14;100.00;101339.02;107984;1255;72509;-66
2024/03/08 01:09:45;;;;;;;29.80;17.90;;;;;;;-5.16;100.00;101336.56;107969;1257;61668;-66
2024/03/08 01:12:13;;;;;;;29.70;17.50;;;;;;;-5.17;100.00;101334.34;107963;1257;61067;-66
2024/03/08 01:14:41;;;;;;;29.10;17.10;;;;;;;-5.20;100.00;101331.45;108084;1257;72644;-64
2024/03/08 01:17:09;;;;;;;32.00;18.20;;;;;;;-5.20;100.00;101327.11;108011;1257;71687;-64
2024/03/08 01:19:37;;;;;;;33.50;18.70;;;;;;;-5.19;100.00;101326.52;108037;1257;71352;-65
2024/03/08 01:22:05;;;;;;;34.60;19.00;;;;;;;-5.18;100.00;101324.41;108056;1257;61257;-64
2024/03/08 01:24:36;;;;;;;32.10;19.00;;;;;;;-5.15;100.00;101325.81;108015;1257;61135;-64
2024/03/08 01:27:03;;;;;;;33.90;18.90;;;;;;;-5.12;100.00;101323.91;107703;1255;73462;-64
2024/03/08 01:29:32;;;;;;;35.70;19.50;;;;;;;-5.13;100.00;101320.10;108008;1256;71588;-64
2024/03/08 01:32:01;;;;;;;34.60;18.60;;;;;;;-5.14;100.00;101323.53;107944;1257;71243;-65
2024/03/08 01:34:29;;;;;;;33.50;18.50;;;;;;;-5.13;100.00;101320.30;108062;1257;61146;-65
2024/03/08 01:36:57;;;;;;;34.40;19.60;;;;;;;-5.12;100.00;101319.52;108102;1259;61066;-65
2024/03/08 01:39:25;;;;;;;33.70;18.90;;;;;;;-5.13;100.00;101311.75;108018;1258;74126;-62
2024/03/08 01:41:53;;;;;;;35.90;19.20;;;;;;;-5.12;100.00;101305.45;107928;1256;71565;-68
2024/03/08 01:44:22;;;;;;;32.20;19.20;;;;;;;-5.08;100.00;101304.60;108029;1256;71445;-64
2024/03/08 01:46:51;;;;;;;32.90;19.10;;;;;;;-5.04;100.00;101298.52;108006;1256;61019;-64
2024/03/08 01:49:20;;;;;;;37.80;20.20;;;;;;;-5.02;100.00;101299.52;107964;1256;61233;-63
2024/03/08 01:51:48;;;;;;;35.80;19.90;;;;;;;-5.01;100.00;101297.38;107936;1256;75328;-64
2024/03/08 01:54:16;;;;;;;35.40;20.40;;;;;;;-5.02;100.00;101293.94;108064;1256;73155;-64
2024/03/08 01:56:44;;;;;;;32.80;18.60;;;;;;;-5.06;100.00;101291.19;108017;1255;71375;-64
2024/03/08 01:59:14;;;;;;;34.80;19.30;;;;;;;-5.13;100.00;101286.58;107972;1259;61096;-65
2024/03/08 02:01:43;;;;;;;35.80;20.20;;;;;;;-5.19;100.00;101288.19;107838;1261;61406;-64
2024/03/08 02:04:11;;;;;;;34.60;19.90;;;;;;;-5.24;100.00;101288.63;107963;1256;73071;-65
2024/03/08 02:06:39;;;;;;;33.30;19.80;;;;;;;-5.28;100.00;101287.23;108125;1256;71621;-63
2024/03/08 02:09:06;;;;;;;34.60;18.90;;;;;;;-5.31;100.00;101281.27;108015;1257;72505;-64
2024/03/08 02:11:35;;;;;;;34.00;18.30;;;;;;;-5.33;100.00;101281.47;107888;1257;61221;-65
2024/03/08 02:14:06;;;;;;;28.90;18.00;;;;;;;-5.35;100.00;101281.48;107994;1257;61070;-64
2024/03/08 02:16:34;;;;;;;28.60;16.80;;;;;;;-5.40;100.00;101281.15;107991;1257;73457;-65
2024/03/08 02:19:02;;;;;;;32.20;17.70;;;;;;;-5.42;100.00;101283.79;108180;1256;71989;-64
2024/03/08 02:21:30;;;;;;;35.10;18.60;;;;;;;-5.43;100.00;101285.61;107876;1257;71468;-64
2024/03/08 02:23:58;;;;;;;32.20;18.30;;;;;;;-5.42;100.00;101284.64;107761;1257;61105;-64
2024/03/08 02:26:27;;;;;;;33.60;18.80;;;;;;;-5.41;100.00;101283.73;107722;1257;61263;-64
2024/03/08 02:28:55;;;;;;;34.80;20.10;;;;;;;-5.39;100.00;101282.54;107963;1256;72682;-64
2024/03/08 02:31:23;;;;;;;41.00;20.40;;;;;;;-5.37;100.00;101280.39;107940;1257;71425;-64
2024/03/08 02:33:50;;;;;;;36.10;20.00;;;;;;;-5.36;100.00;101277.73;108091;1256;72672;-64
2024/03/08 02:36:18;;;;;;;36.60;19.10;;;;;;;-5.37;100.00;101277.98;108132;1256;60948;-65
2024/03/08 02:38:46;;;;;;;35.00;20.00;;;;;;;-5.32;100.00;101276.17;107939;1255;61164;-65
2024/03/08 02:41:14;;;;;;;37.20;19.60;;;;;;;-5.27;100.00;101272.21;107991;1256;75168;-64
2024/03/08 02:43:42;;;;;;;32.20;19.20;;;;;;;-5.21;100.00;101268.90;108033;1257;71198;-65
2024/03/08 02:46:10;;;;;;;33.40;19.70;;;;;;;-5.16;100.00;101268.48;107988;1255;71370;-65
2024/03/08 02:48:39;;;;;;;35.00;19.30;;;;;;;-5.12;100.00;101266.05;108021;1255;61113;-63
2024/03/08 02:51:07;;;;;;;32.70;18.80;;;;;;;-5.10;100.00;101264.67;108157;1257;61063;-64
2024/03/08 02:53:35;;;;;;;35.00;20.40;;;;;;;-5.10;100.00;101267.56;107984;1257;73633;-64
2024/03/08 02:56:04;;;;;;;36.90;19.60;;;;;;;-5.10;100.00;101265.67;108089;1256;71597;-64
2024/03/08 02:58:32;;;;;;;35.60;20.90;;;;;;;-5.09;100.00;101260.70;108126;1257;72739;-65
2024/03/08 03:00:59;;;;;;;35.70;19.90;;;;;;;-5.07;100.00;101252.69;108094;1257;61021;-65
2024/03/08 03:03:27;;;;;;;37.70;21.00;;;;;;;-5.05;100.00;101251.65;108066;1257;61096;-65
2024/03/08 03:05:55;;;;;;;35.00;20.90;;;;;;;-5.03;100.00;101251.46;107919;1257;74272;-65
2024/03/08 03:08:23;;;;;;;35.70;20.40;;;;;;;-5.02;100.00;101247.27;107938;1259;72735;-63
2024/03/08 03:10:51;;;;;;;38.20;21.80;;;;;;;-5.04;100.00;101249.38;108107;1256;71359;-63
2024/03/08 03:13:19;;;;;;;42.50;21.20;;;;;;;-5.08;100.00;101246.25;107952;1257;61774;-65
2024/03/08 03:15:47;;;;;;;36.40;20.40;;;;;;;-5.11;100.00;101248.05;107934;1257;61151;-64
2024/03/08 03:18:15;;;;;;;34.00;20.10;;;;;;;-5.14;100.00;101245.87;107937;1257;73658;-64
2024/03/08 03:20:44;;;;;;;40.10;22.70;;;;;;;-5.15;100.00;101245.85;107981;1257;71471;-65
2024/03/08 03:23:14;;;;;;;36.50;20.80;;;;;;;-5.16;100.00;101245.55;108049;1257;71472;-65
2024/03/08 03:25:43;;;;;;;36.60;21.70;;;;;;;-5.14;100.00;101243.31;108212;1257;61126;-65
2024/03/08 03:28:14;;;;;;;35.90;20.00;;;;;;;-5.13;100.00;101240.80;107978;1257;60074;-65
2024/03/08 03:30:43;;;;;;;35.40;19.90;;;;;;;-5.14;100.00;101236.84;107975;1255;73491;-65
2024/03/08 03:33:12;;;;;;;37.90;21.50;;;;;;;-5.16;100.00;101234.08;107977;1257;71758;-64
2024/03/08 03:35:41;;;;;;;38.50;21.90;;;;;;;-5.18;100.00;101236.33;108022;1257;71314;-64
2024/03/08 03:38:09;;;;;;;39.60;21.20;;;;;;;-5.21;100.00;101233.98;107977;1258;61133;-64
2024/03/08 03:40:39;;;;;;;38.00;22.20;;;;;;;-5.23;100.00;101234.53;107985;1259;61250;-64
2024/03/08 03:43:09;;;;;;;38.00;20.80;;;;;;;-5.25;100.00;101239.23;108041;1257;75187;-65
2024/03/08 03:45:39;;;;;;;39.50;21.50;;;;;;;-5.27;100.00;101239.46;108115;1257;71633;-65
2024/03/08 03:48:08;;;;;;;37.00;21.50;;;;;;;-5.30;100.00;101238.65;108097;1257;71681;-64
2024/03/08 03:50:38;;;;;;;39.90;22.10;;;;;;;-5.30;100.00;101238.13;108027;1257;61192;-64
2024/03/08 03:53:07;;;;;;;40.20;21.20;;;;;;;-5.30;100.00;101235.17;108001;1256;61083;-64
2024/03/08 03:55:39;;;;;;;39.30;22.00;;;;;;;-5.32;100.00;101232.27;107937;1256;74773;-64
2024/03/08 03:58:09;;;;;;;42.80;22.50;;;;;;;-5.34;100.00;101237.77;107933;1257;71130;-63
2024/03/08 04:00:38;;;;;;;40.60;21.90;;;;;;;-5.36;100.00;101233.98;108000;1257;70504;-65
2024/03/08 04:03:08;;;;;;;40.50;21.40;;;;;;;-5.39;100.00;101235.77;108044;1256;60987;-65
2024/03/08 04:05:36;;;;;;;45.90;22.30;;;;;;;-5.40;100.00;101236.57;107999;1256;61237;-65
2024/03/08 04:08:06;;;;;;;38.90;21.00;;;;;;;-5.38;100.00;101237.12;108077;1256;73460;-64
2024/03/08 04:10:33;;;;;;;45.60;23.60;;;;;;;-5.37;100.00;101238.05;107881;1257;71442;-64
2024/03/08 04:13:02;;;;;;;36.20;21.50;;;;;;;-5.35;100.00;101235.95;107984;1257;72762;-64
2024/03/08 04:15:30;;;;;;;38.40;21.50;;;;;;;-5.32;100.00;101233.09;108106;1254;61089;-66
2024/03/08 04:18:00;;;;;;;41.80;22.10;;;;;;;-5.32;100.00;101228.27;108128;1254;58994;-66
2024/03/08 04:20:28;;;;;;;48.70;23.60;;;;;;;-5.35;100.00;101226.60;108139;1254;73463;-66
2024/03/08 04:22:56;;;;;;;43.80;22.40;;;;;;;-5.36;100.00;101227.60;108094;1257;71440;-64
2024/03/08 04:25:23;;;;;;;42.30;22.50;;;;;;;-5.37;100.00;101225.73;108003;1256;72738;-64
2024/03/08 04:27:52;;;;;;;41.40;22.00;;;;;;;-5.37;100.00;101226.59;108031;1256;62202;-65
2024/03/08 04:30:21;;;;;;;40.40;22.20;;;;;;;-5.40;100.00;101226.55;108126;1257;60365;-65
2024/03/08 04:32:49;;;;;;;38.00;20.10;;;;;;;-5.46;100.00;101225.80;108038;1255;73353;-64
2024/03/08 04:35:17;;;;;;;38.40;21.60;;;;;;;-5.49;100.00;101226.59;108036;1259;72707;-65
2024/03/08 04:37:45;;;;;;;38.40;21.70;;;;;;;-5.54;100.00;101223.63;107966;1257;70594;-66
2024/03/08 04:40:12;;;;;;;40.20;21.30;;;;;;;-5.57;100.00;101225.27;107875;1256;61679;-64
2024/03/08 04:42:40;;;;;;;39.10;21.90;;;;;;;-5.58;100.00;101221.55;108075;1257;61298;-65
2024/03/08 04:45:10;;;;;;;38.40;20.30;;;;;;;-5.59;100.00;101217.95;107917;1255;72982;-65
2024/03/08 04:47:39;;;;;;;43.70;23.30;;;;;;;-5.60;100.00;101217.89;108025;1257;72712;-65
2024/03/08 04:50:08;;;;;;;38.10;21.10;;;;;;;-5.58;100.00;101215.97;108206;1257;72737;-64
2024/03/08 04:52:36;;;;;;;38.50;21.10;;;;;;;-5.53;100.00;101214.86;107846;1257;61230;-65
2024/03/08 04:55:05;;;;;;;38.30;22.10;;;;;;;-5.47;100.00;101212.75;108009;1257;61234;-63
2024/03/08 04:57:33;;;;;;;38.90;21.60;;;;;;;-5.41;100.00;101213.80;107953;1257;74639;-64
2024/03/08 05:00:04;;;;;;;36.30;20.70;;;;;;;-5.32;100.00;101212.94;108045;1257;71450;-64
2024/03/08 05:02:32;;;;;;;40.40;21.50;;;;;;;-5.25;100.00;101213.92;107934;1257;71099;-64
2024/03/08 05:05:00;;;;;;;37.90;21.80;;;;;;;-5.20;100.00;101216.21;108041;1259;60815;-66
2024/03/08 05:07:29;;;;;;;40.60;22.70;;;;;;;-5.12;100.00;101217.27;107956;1255;59986;-63
2024/03/08 05:09:56;;;;;;;40.60;22.60;;;;;;;-5.03;100.00;101217.48;108094;1257;73953;-63
2024/03/08 05:12:24;;;;;;;41.80;23.30;;;;;;;-4.93;100.00;101220.73;108028;1259;71727;-63
2024/03/08 05:14:52;;;;;;;44.00;23.30;;;;;;;-4.82;100.00;101222.71;108009;1257;71493;-63
2024/03/08 05:17:20;;;;;;;44.10;24.60;;;;;;;-4.71;100.00;101216.77;107973;1256;61083;-64
2024/03/08 05:19:48;;;;;;;41.20;23.20;;;;;;;-4.58;100.00;101221.29;108108;1257;61220;-65
2024/03/08 05:22:15;;;;;;;39.10;23.40;;;;;;;-4.44;100.00;101223.52;108129;1258;72756;-64
2024/03/08 05:24:43;;;;;;;41.90;23.80;;;;;;;-4.30;100.00;101226.24;108118;1257;73017;-64
2024/03/08 05:27:11;;;;;;;48.70;27.40;;;;;;;-4.16;100.00;101227.73;107890;1257;72154;-65
2024/03/08 05:29:38;;;;;;;46.00;26.50;;;;;;;-4.05;100.00;101225.73;108082;1255;61097;-64
2024/03/08 05:32:07;;;;;;;43.30;25.30;;;;;;;-3.91;100.00;101224.14;108000;1259;61259;-63
2024/03/08 05:34:34;;;;;;;46.70;26.20;;;;;;;-3.79;100.00;101220.86;108059;1255;74680;-65
2024/03/08 05:37:02;;;;;;;44.20;25.60;;;;;;;-3.66;100.00;101222.06;108079;1257;72935;-64
2024/03/08 05:39:30;;;;;;;44.20;26.90;;;;;;;-3.53;100.00;101219.26;107972;1257;70155;-63
2024/03/08 05:41:58;;;;;;;50.50;28.70;;;;;;;-3.40;100.00;101217.27;108013;1256;61276;-64
2024/03/08 05:44:28;;;;;;;46.60;28.30;;;;;;;-3.28;100.00;101217.89;107996;1257;60009;-63
2024/03/08 05:46:56;;;;;;;45.50;26.60;;;;;;;-3.17;100.00;101213.44;108177;1257;73442;-64
2024/03/08 05:49:24;;;;;;;49.80;29.80;;;;;;;-3.07;100.00;101211.20;107890;1257;71442;-64
2024/03/08 05:51:54;;;;;;;44.40;26.30;;;;;;;-2.95;100.00;101211.79;108121;1260;71171;-65
2024/03/08 05:54:36;;;;;;;52.80;29.70;;;;;;;-2.85;100.00;101206.66;108071;1257;61097;-62
2024/03/08 05:57:40;;;;;;;50.40;29.20;;;;;;;-2.74;100.00;101210.58;107970;1255;61071;-64
2024/03/08 06:03:45;;;;;;;47.60;26.40;;;;;;;-2.46;100.00;101199.02;108000;1258;71601;-64
2024/03/08 06:06:13;;;;;;;45.00;26.50;;;;;;;-2.37;100.00;101199.90;107946;1256;74477;-65
2024/03/08 06:08:43;;;;;;;44.10;24.50;;;;;;;-2.32;100.00;101201.79;107897;1257;61856;-64
2024/03/08 06:11:11;;;;;;;45.40;27.70;;;;;;;-2.25;100.00;101202.30;107797;1256;61285;-65
2024/03/08 06:13:39;;;;;;;51.50;29.30;;;;;;;-2.16;100.00;101200.67;107975;1256;76818;-64
2024/03/08 06:16:08;;;;;;;45.40;25.60;;;;;;;-2.05;100.00;101203.36;109204;1256;72879;-64
2024/03/08 06:18:42;;;;;;;43.60;26.40;;;;;;;-1.96;100.00;101205.98;109237;1257;72687;-66
2024/03/08 06:21:11;;;;;;;45.80;27.60;;;;;;;-1.92;100.00;101198.16;109269;1255;59535;-65
2024/03/08 06:23:39;;;;;;;46.10;27.30;;;;;;;-1.85;100.00;101204.09;109276;1257;58934;-64
2024/03/08 06:28:14;;;;;;;48.10;28.30;;;;;;;-1.69;100.00;101200.17;104838;1291;601069;-65
2024/03/08 06:30:43;;;;;;;48.50;29.20;;;;;;;-1.65;100.00;101196.90;107412;1266;59683;-64
2024/03/08 06:33:10;;;;;;;48.10;28.40;;;;;;;-1.57;100.00;101196.98;107327;1269;59453;-64
2024/03/08 06:35:38;;;;;;;49.60;28.90;;;;;;;-1.45;100.00;101193.33;107322;1266;70833;-64
2024/03/08 06:38:06;;;;;;;51.40;30.00;;;;;;;-1.32;100.00;101192.09;107348;1265;71583;-63
2024/03/08 06:40:34;;;;;;;42.50;25.90;;;;;;;-1.18;100.00;101190.02;107345;1266;72720;-63
2024/03/08 06:43:05;;;;;;;44.80;28.10;;;;;;;-1.01;100.00;101190.54;107300;1262;60971;-64
2024/03/08 06:45:33;;;;;;;42.50;26.40;;;;;;;-0.96;100.00;101189.05;107910;1256;59479;-63
2024/03/08 06:48:01;;;;;;;45.40;29.90;;;;;;;-0.94;100.00;101186.11;108099;1256;71606;-63
2024/03/08 06:50:29;;;;;;;46.70;28.50;;;;;;;-0.93;100.00;101182.67;108026;1256;72084;-63
2024/03/08 06:52:57;;;;;;;43.30;26.80;;;;;;;-0.89;100.00;101185.16;108001;1256;71355;-64
2024/03/08 06:55:24;;;;;;;48.00;28.50;;;;;;;-0.86;100.00;101182.55;108061;1256;61080;-65
2024/03/08 06:57:52;;;;;;;46.20;28.50;;;;;;;-0.78;100.00;101179.60;107987;1256;59516;-64
2024/03/08 07:00:22;;;;;;;43.50;28.00;;;;;;;-0.63;100.00;101179.75;107974;1257;71894;-64
2024/03/08 07:02:53;;;;;;;43.10;26.20;;;;;;;-0.45;100.00;101175.31;108007;1255;75488;-63
2024/03/08 07:05:21;;;;;;;43.10;25.90;;;;;;;-0.28;100.00;101177.73;107983;1257;71378;-63
2024/03/08 07:07:49;;;;;;;47.40;29.30;;;;;;;-0.15;100.00;101175.45;107967;1256;59671;-64
2024/03/08 07:10:17;;;;;;;43.20;28.30;;;;;;;-0.06;100.00;101172.39;108007;1256;61343;-64
2024/03/08 07:12:45;;;;;;;43.90;28.50;;;;;;;0.08;100.00;101169.07;108023;1256;74072;-63
2024/03/08 07:15:13;;;;;;;35.30;21.90;;;;;;;0.24;100.00;101168.45;108030;1256;75198;-64
2024/03/08 07:17:44;;;;;;;39.50;26.00;;;;;;;0.34;100.00;101168.64;108054;1260;73116;-63
2024/03/08 07:20:14;;;;;;;39.00;24.70;;;;;;;0.42;100.00;101171.96;107961;1256;61486;-64
2024/03/08 07:22:42;;;;;;;38.30;24.80;;;;;;;0.57;100.00;101175.38;108004;1254;59468;-63
2024/03/08 07:25:32;;;;;;;39.30;24.10;;;;;;;0.74;100.00;101174.16;108088;1256;73088;-65
2024/03/08 07:28:00;;;;;;;39.30;25.80;;;;;;;0.88;100.00;101172.78;107893;1256;75018;-64
2024/03/08 07:33:12;;;;;;;39.70;26.00;;;;;;;1.15;100.00;101164.39;107824;1257;61016;-65
2024/03/08 07:35:42;;;;;;;41.10;25.80;;;;;;;1.29;100.00;101162.83;107881;1256;62283;-65
2024/03/08 07:38:11;;;;;;;38.40;23.90;;;;;;;1.38;100.00;101154.83;107776;1256;75183;-65
2024/03/08 07:40:46;;;;;;;34.40;23.30;;;;;;;1.49;100.00;101156.67;107914;1255;73255;-65
2024/03/08 07:43:14;;;;;;;37.10;24.20;;;;;;;1.61;100.00;101154.16;107964;1255;73081;-65
2024/03/08 07:45:42;;;;;;;39.80;25.20;;;;;;;1.73;100.00;101155.99;108012;1257;60162;-65
2024/03/08 07:48:10;;;;;;;36.40;23.90;;;;;;;1.84;100.00;101156.09;107918;1260;59897;-65
2024/03/08 07:50:39;;;;;;;35.80;23.30;;;;;;;1.95;100.00;101154.23;107939;1256;73488;-65
2024/03/08 07:53:07;;;;;;;38.10;24.70;;;;;;;2.04;99.21;101148.70;107962;1257;72929;-65
2024/03/08 07:55:35;;;;;;;32.90;21.70;;;;;;;2.11;96.57;101143.59;107956;1257;73112;-65
2024/03/08 07:58:04;;;;;;;36.60;23.80;;;;;;;2.17;94.08;101140.77;108026;1256;59546;-64
2024/03/08 08:00:32;;;;;;;32.00;22.20;;;;;;;2.23;92.21;101134.67;108002;1257;60558;-66
2024/03/08 08:03:01;;;;;;;34.30;21.80;;;;;;;2.32;90.90;101135.25;107857;1256;75286;-64
2024/03/08 08:05:29;;;;;;;33.80;22.40;;;;;;;2.43;89.54;101134.45;107862;1256;72014;-64
2024/03/08 08:07:57;;;;;;;33.60;22.70;;;;;;;2.54;88.05;101131.11;107834;1256;74870;-66
2024/03/08 08:10:26;;;;;;;27.90;18.80;;;;;;;2.66;86.85;101132.38;107943;1256;61174;-66
2024/03/08 08:12:54;;;;;;;27.80;20.10;;;;;;;2.76;85.03;101130.05;92804;1262;20002696;-66
2024/03/08 08:15:22;;;;;;;29.20;20.30;;;;;;;2.89;84.03;101124.96;100880;1257;10001331;-65
2024/03/08 08:17:53;;;;;;;29.70;19.50;;;;;;;2.97;81.38;101123.08;107701;1256;74584;-65
2024/03/08 08:20:23;;;;;;;26.70;18.00;;;;;;;3.06;79.69;101123.27;108228;1251;60578;-64
2024/03/08 08:22:51;;;;;;;27.30;18.10;;;;;;;3.17;78.56;101118.85;108135;1253;60949;-65
2024/03/08 08:25:20;;;;;;;25.20;16.60;;;;;;;3.28;77.32;101123.44;108213;1256;73407;-65
2024/03/08 08:27:48;;;;;;;25.20;16.40;;;;;;;3.36;75.00;101122.86;108141;1252;74971;-65
2024/03/08 08:30:16;;;;;;;24.20;16.60;;;;;;;3.43;74.06;101119.81;108071;1253;74746;-66
2024/03/08 08:32:44;;;;;;;25.30;16.50;;;;;;;3.50;72.22;101114.11;108094;1253;61041;-64
2024/03/08 08:35:12;;;;;;;25.00;16.60;;;;;;;3.54;70.76;101113.57;108142;1252;59987;-65
2024/03/08 08:37:40;;;;;;;21.30;14.10;;;;;;;3.66;70.47;101111.73;108160;1251;71845;-66
2024/03/08 08:40:10;;;;;;;20.80;14.40;;;;;;;3.79;68.79;101107.07;109335;1253;73618;-65
2024/03/08 08:42:38;;;;;;;20.30;13.50;;;;;;;3.94;68.09;101105.52;108096;1253;74943;-65
2024/03/08 08:45:09;;;;;;;22.60;15.10;;;;;;;4.08;66.76;101100.04;108168;1253;61663;-65
2024/03/08 08:47:44;;;;;;;20.60;14.70;;;;;;;4.14;64.51;101100.23;108094;1253;59637;-65
2024/03/08 08:50:13;;;;;;;19.60;13.30;;;;;;;4.18;64.02;101100.98;108175;1252;75201;-66
2024/03/08 08:52:43;;;;;;;16.70;11.30;;;;;;;4.30;63.19;101097.45;108135;1254;75144;-65
2024/03/08 08:55:14;;;;;;;16.70;11.90;;;;;;;4.45;62.04;101090.92;108168;1253;74974;-66
2024/03/08 08:57:43;;;;;;;17.00;12.10;;;;;;;4.57;60.24;101091.73;108096;1253;59612;-66
2024/03/08 09:00:14;;;;;;;19.00;12.30;;;;;;;4.62;58.63;101091.98;108216;1252;60782;-65
2024/03/08 09:02:43;;;;;;;19.90;13.60;;;;;;;4.64;57.59;101087.04;108230;1254;71850;-65
2024/03/08 09:05:11;;;;;;;17.80;12.90;;;;;;;4.72;57.18;101085.90;108248;1251;74998;-65
2024/03/08 09:07:39;;;;;;;17.30;11.80;;;;;;;4.81;56.29;101088.38;108150;1253;74853;-65
2024/03/08 09:10:09;;;;;;;17.40;11.70;;;;;;;4.92;54.69;101083.36;108191;1251;59849;-64
2024/03/08 09:12:40;;;;;;;20.50;13.00;;;;;;;5.04;54.12;101076.58;108114;1251;60445;-64
2024/03/08 09:15:09;;;;;;;17.20;11.70;;;;;;;5.18;52.93;101073.15;108133;1251;75296;-63
2024/03/08 09:17:39;;;;;;;18.00;11.40;;;;;;;5.25;51.58;101073.77;108410;1253;74847;-65
2024/03/08 09:20:10;;;;;;;16.00;11.00;;;;;;;5.31;51.08;101064.27;108071;1251;73127;-65
2024/03/08 09:22:40;;;;;;;18.70;12.10;;;;;;;5.42;50.47;101062.10;108145;1253;60236;-64
2024/03/08 09:25:09;;;;;;;18.40;12.10;;;;;;;5.52;49.65;101062.64;108137;1253;60443;-64
2024/03/08 09:27:37;;;;;;;21.20;13.60;;;;;;;5.58;48.71;101059.66;108226;1251;75267;-64
2024/03/08 09:30:08;;;;;;;19.40;13.00;;;;;;;5.65;48.59;101056.45;108102;1253;71742;-65
2024/03/08 09:32:36;;;;;;;19.00;12.70;;;;;;;5.72;48.45;101048.10;108185;1253;74980;-66
2024/03/08 09:35:07;;;;;;;18.20;12.10;;;;;;;5.79;47.67;101047.65;108292;1253;59399;-65
2024/03/08 09:37:35;;;;;;;19.40;13.00;;;;;;;5.76;46.98;101045.91;108199;1251;62333;-65
2024/03/08 09:40:09;;;;;;;19.60;12.70;;;;;;;5.78;47.17;101044.02;108365;1256;75314;-63
2024/03/08 09:42:38;;;;;;;19.30;12.80;;;;;;;5.83;47.19;101042.08;108256;1252;73179;-65
2024/03/08 09:45:16;;;;;;;19.80;13.70;;;;;;;5.93;46.88;101040.08;108103;1253;72741;-66
2024/03/08 09:47:44;;;;;;;21.20;13.30;;;;;;;6.00;46.57;101039.75;108329;1251;59574;-64
2024/03/08 09:50:12;;;;;;;20.80;13.30;;;;;;;6.07;46.12;101037.34;108394;1251;62389;-65
2024/03/08 09:52:40;;;;;;;17.40;11.40;;;;;;;6.17;45.82;101034.95;108352;1253;75250;-64
2024/03/08 09:55:08;;;;;;;16.60;12.10;;;;;;;6.27;44.96;101033.96;108349;1251;75030;-64
2024/03/08 09:57:36;;;;;;;16.00;11.30;;;;;;;6.34;43.61;101035.13;108178;1254;75097;-64
2024/03/08 10:00:18;;;;;;;18.80;12.40;;;;;;;6.28;42.96;101033.10;108357;1251;61601;-64
2024/03/08 10:02:46;;;;;;;;;;;;;;;6.22;43.58;101028.73;108285;1252;60282;-65
2024/03/08 10:05:14;;;;;;;16.40;11.50;;;;;;;6.25;43.09;101032.88;108262;1254;71947;-65
2024/03/08 10:07:41;;;;;;;17.60;12.00;;;;;;;6.27;42.12;101030.94;108228;1253;73198;-63
2024/03/08 10:10:11;;;;;;;17.60;11.30;;;;;;;6.28;42.05;101029.25;108332;1253;72680;-66
2024/03/08 10:12:40;;;;;;;19.00;12.20;;;;;;;6.33;41.83;101029.75;108250;1253;61552;-64
2024/03/08 10:15:08;;;;;;;20.00;12.40;;;;;;;6.41;41.30;101025.04;108247;1251;62333;-65
2024/03/08 10:17:36;;;;;;;20.60;11.80;;;;;;;6.44;41.31;101024.44;108318;1252;75412;-64
2024/03/08 10:20:14;;;;;;;17.80;12.00;;;;;;;6.50;41.45;101021.73;108328;1253;74995;-64
2024/03/08 10:22:43;;;;;;;17.50;12.20;;;;;;;6.51;40.94;101018.84;108263;1256;73649;-64
2024/03/08 10:25:24;;;;;;;17.70;12.60;;;;;;;6.49;40.99;101015.56;108319;1252;61798;-64
2024/03/08 10:27:52;;;;;;;19.00;12.30;;;;;;;6.47;41.12;101016.96;108323;1251;62210;-64
2024/03/08 10:30:21;;;;;;;17.50;11.40;;;;;;;6.51;41.39;101016.34;108316;1251;74183;-65
2024/03/08 10:32:49;;;;;;;18.80;12.50;;;;;;;6.60;41.48;101005.30;108258;1253;73306;-64
2024/03/08 10:35:17;;;;;;;16.40;11.50;;;;;;;6.70;40.46;101002.58;108214;1253;71292;-65
2024/03/08 10:37:47;;;;;;;16.70;11.80;;;;;;;6.73;39.75;101000.07;108207;1253;60331;-66
2024/03/08 10:40:18;;;;;;;18.70;12.70;;;;;;;6.76;40.04;100998.08;108279;1253;61944;-65
2024/03/08 10:42:56;;;;;;;22.60;13.50;;;;;;;6.85;40.21;100995.31;108275;1253;72742;-64
2024/03/08 10:45:53;;;;;;;17.70;11.50;;;;;;;6.94;39.73;100989.38;108249;1253;75078;-65
2024/03/08 10:48:35;;;;;;;21.20;14.00;;;;;;;6.95;39.31;100982.38;108227;1253;74969;-65
2024/03/08 10:51:07;;;;;;;18.50;13.20;;;;;;;6.91;38.92;100980.34;108282;1252;61546;-65
2024/03/08 10:53:36;;;;;;;22.50;13.40;;;;;;;6.85;38.87;100980.13;108098;1253;62204;-65
2024/03/08 10:56:05;;;;;;;19.80;13.00;;;;;;;6.87;39.11;100973.53;108107;1258;76088;-64
2024/03/08 10:58:34;;;;;;;19.70;13.60;;;;;;;6.94;39.39;100976.99;108281;1253;73433;-68
2024/03/08 11:01:02;;;;;;;24.00;14.20;;;;;;;7.04;39.62;100974.63;108277;1253;72779;-66
2024/03/08 11:03:48;;;;;;;21.90;14.00;;;;;;;7.15;39.15;100971.80;108289;1253;61422;-64
2024/03/08 11:06:38;;;;;;;20.80;14.30;;;;;;;7.28;39.22;100967.66;108247;1253;60397;-65
2024/03/08 11:09:32;;;;;;;21.90;14.30;;;;;;;7.37;39.18;100966.15;108289;1254;74350;-64
2024/03/08 11:12:25;;;;;;;23.00;15.00;;;;;;;7.44;38.71;100963.48;108249;1253;75038;-65
2024/03/08 11:14:54;;;;;;;21.10;13.90;;;;;;;7.47;38.58;100962.34;108238;1251;74845;-65
2024/03/08 11:17:49;;;;;;;21.40;13.60;;;;;;;7.45;38.29;100949.41;108209;1251;62142;-64